3788A6351 Weather Reports


Display with metric or nautical units.
time (UTC)temp
F
wind
direction
speed
MPH
gust
MPH
rain 1hr
in
rain 24hr
in
rain mn
in
humidity
%
barometer
mb
20260906124553 67 103 4.0 9.0 0.00 0.02 0.01 98 1018.6
20260906123051 67 111 4.0 10.0 0.01 0.02 0.01 98 1018.3
20260906121555 66 89 5.0 8.0 0.01 0.02 0.01 98 1018.0
20260906120110 66 107 4.0 7.0 0.01 0.02 0.01 98 1017.9
20260906114601 66 82 3.0 7.0 0.01 0.02 0.01 98 1017.8
20260906113102 66 94 2.0 6.0 0.00 0.01 0.00 98 1017.8
20260906111604 65 92 2.0 4.0 0.00 0.01 0.00 97 1017.9
20260906110052 65 94 1.0 2.0 0.00 0.01 0.00 97 1017.9
20260906104600 64 73 0.0 1.0 0.00 0.01 0.00 97 1018.0
20260906103102 64 0 0.0 1.0 0.00 0.01 0.00 97 1018.0
20260906101600 64 0 0.0 1.0 0.00 0.01 0.00 97 1017.7
20260906100053 64 105 0.0 1.0 0.00 0.01 0.00 97 1017.4
20260906094553 64 0 0.0 0.0 0.00 0.01 0.00 97 1017.4
20260906093057 64 0 0.0 0.0 0.00 0.01 0.00 97 1017.5
20260906091553 64 0 0.0 1.0 0.00 0.01 0.00 97 1017.4
20260906090056 65 0 0.0 1.0 0.00 0.01 0.00 96 1017.3
20260906084553 65 0 0.0 1.0 0.00 0.01 0.00 96 1017.1
20260906083100 66 0 0.0 2.0 0.00 0.01 0.00 96 1016.8
20260906081553 66 80 0.0 2.0 0.00 0.01 0.00 96 1016.8
20260906080059 66 0 0.0 3.0 0.00 0.01 0.00 96 1017.0
20260906074602 67 91 0.0 3.0 0.00 0.01 0.00 96 1016.9
20260906073055 67 79 1.0 5.0 0.00 0.01 0.00 96 1017.1
20260906071559 67 79 0.0 3.0 0.00 0.01 0.00 96 1017.3
20260906070059 68 75 1.0 4.0 0.00 0.01 0.00 96 1017.2
20260906064552 67 68 0.0 3.0 0.00 0.01 0.00 96 1017.4
20260906063057 68 0 0.0 2.0 0.00 0.01 0.00 95 1017.5
20260906061556 68 88 0.0 2.0 0.00 0.01 0.00 95 1017.4
20260906060058 69 0 1.0 4.0 0.00 0.01 0.00 95 1017.5
20260906054552 69 82 1.0 4.0 0.00 0.01 0.00 95 1017.5
20260906053053 70 75 1.0 7.0 0.00 0.01 0.00 95 1017.6
20260906051557 70 66 2.0 7.0 0.00 0.01 0.00 95 1017.4
20260906050059 70 75 2.0 5.0 0.00 0.01 0.00 96 1017.3
20260906044553 70 62 1.0 5.0 0.00 0.01 0.01 96 1017.4
20260906043046 70 48 2.0 3.0 0.00 0.01 0.01 96 1017.1
20260906041602 70 51 1.0 4.0 0.00 0.01 0.01 96 1017.2
20260906040054 70 55 0.0 2.0 0.00 0.01 0.01 95 1017.1
20260906034551 70 0 0.0 1.0 0.00 0.01 0.01 95 1017.0
20260906033048 71 340 0.0 1.0 0.00 0.01 0.01 96 1017.1
20260906031556 71 0 0.0 2.0 0.00 0.01 0.01 95 1017.0
20260906030053 71 0 0.0 1.0 0.00 0.01 0.01 95 1017.1
20260906024601 71 0 0.0 1.0 0.00 0.01 0.01 95 1017.1
20260906023050 72 0 0.0 2.0 0.00 0.01 0.01 95 1016.8
20260906021559 71 0 0.0 1.0 0.00 0.01 0.01 95 1016.6
20260906020055 72 0 0.0 1.0 0.00 0.01 0.01 94 1016.6
20260906014608 72 0 0.0 1.0 0.00 0.01 0.01 94 1016.4
20260906013051 72 334 0.0 1.0 0.00 0.01 0.01 94 1016.2
20260906011551 73 0 0.0 0.0 0.00 0.01 0.01 93 1016.1
20260906010116 73 0 0.0 1.0 0.00 0.01 0.01 93 1016.0
20260906004600 73 77 1.0 2.0 0.00 0.01 0.01 92 1015.8
20260906003110 74 0 0.0 1.0 0.00 0.01 0.01 91 1015.9
20260906001549 74 77 0.0 3.0 0.00 0.01 0.01 90 1015.7
20260906000053 75 78 1.0 3.0 0.00 0.01 0.01 89 1015.7
20260905234603 76 0 0.0 2.0 0.00 0.01 0.01 89 1015.6
20260905233048 76 75 1.0 4.0 0.00 0.01 0.01 87 1015.5
20260905231559 77 78 1.0 3.0 0.00 0.01 0.01 86 1015.5
20260905230056 77 64 3.0 7.0 0.00 0.01 0.01 86 1015.2
20260905224549 77 114 3.0 8.0 0.00 0.01 0.01 86 1015.2
20260905223057 77 89 4.0 7.0 0.00 0.01 0.01 85 1015.1
20260905221550 77 65 4.0 7.0 0.00 0.01 0.01 86 1015.1
20260905220100 77 84 4.0 8.0 0.00 0.01 0.01 86 1015.0
20260905214552 77 79 5.0 10.0 0.00 0.01 0.01 85 1015.0
20260905213050 77 91 5.0 8.0 0.00 0.01 0.01 86 1015.1
20260905211547 77 117 3.0 6.0 0.00 0.01 0.01 87 1015.1
20260905210055 78 93 5.0 11.0 0.00 0.01 0.01 86 1015.3
20260905204559 78 101 4.0 9.0 0.00 0.01 0.01 88 1015.1
20260905203056 78 82 4.0 9.0 0.00 0.01 0.01 87 1015.3
20260905201546 78 104 4.0 8.0 0.00 0.01 0.01 87 1015.4
20260905200053 78 98 4.0 9.0 0.00 0.01 0.01 87 1015.1
20260905194554 78 101 6.0 11.0 0.00 0.01 0.01 86 1015.5
20260905193106 79 77 5.0 14.0 0.00 0.01 0.01 88 1015.0
20260905191553 78 70 8.0 15.0 0.00 0.01 0.01 89 1014.7
20260905184558 77 84 7.0 13.0 0.00 0.01 0.01 91 1015.5
20260905183056 77 42 6.0 9.0 0.00 0.01 0.01 91 1016.6
20260905181601 76 36 4.0 7.0 0.00 0.01 0.01 93 1017.1
20260905180100 76 53 2.0 6.0 0.01 0.01 0.01 94 1017.1
20260905174552 75 38 2.0 5.0 0.01 0.01 0.01 95 1017.2
20260905173056 74 306 1.0 6.0 0.01 0.01 0.01 97 1017.3
20260905171552 74 351 1.0 5.0 0.01 0.01 0.01 97 1017.7
20260905170105 74 349 2.0 5.0 0.00 0.00 0.00 97 1017.6
20260905164600 74 12 2.0 6.0 0.00 0.00 0.00 97 1017.6
20260905163055 74 27 0.0 3.0 0.00 0.00 0.00 98 1017.7
20260905161551 74 356 1.0 3.0 0.00 0.00 0.00 98 1017.6
20260905160053 73 342 1.0 4.0 0.00 0.00 0.00 98 1017.3
20260905154556 73 56 1.0 5.0 0.00 0.00 0.00 98 1017.1
20260905153051 73 347 0.0 4.0 0.00 0.00 0.00 98 1017.1
20260905151558 72 34 1.0 4.0 0.00 0.00 0.00 98 1016.8
20260905150100 72 327 0.0 3.0 0.00 0.00 0.00 98 1016.7
20260905144554 72 349 1.0 3.0 0.00 0.00 0.00 98 1016.7
20260905143100 71 3 1.0 5.0 0.00 0.00 0.00 98 1016.5
20260905141553 71 4 1.0 3.0 0.00 0.00 0.00 98 1016.4
20260905140052 71 0 0.0 3.0 0.00 0.00 0.00 98 1016.2
20260905134555 71 352 0.0 3.0 0.00 0.00 0.00 98 1016.2
20260905133055 71 0 0.0 3.0 0.00 0.00 0.00 98 1015.9
20260905131555 71 0 0.0 2.0 0.00 0.00 0.00 98 1015.9
20260905130100 70 0 0.0 2.0 0.00 0.00 0.00 98 1015.1